sensor_id;sensor_type;location;lat;lon;timestamp;temperature;humidity
14709;DHT22;7445;50.774;4.944;2023-04-19T06:54:48;11.90;99.90
14709;DHT22;7445;50.774;4.944;2023-04-19T06:57:15;12.20;99.90
14709;DHT22;7445;50.774;4.944;2023-04-19T06:59:41;12.30;99.90
14709;DHT22;7445;50.774;4.944;2023-04-19T07:02:07;12.30;99.90
14709;DHT22;7445;50.774;4.944;2023-04-19T07:04:32;12.40;99.90
14709;DHT22;7445;50.774;4.944;2023-04-19T07:06:58;12.30;99.90
14709;DHT22;7445;50.774;4.944;2023-04-19T07:09:24;12.30;99.90
14709;DHT22;7445;50.774;4.944;2023-04-19T07:11:50;12.40;99.90
14709;DHT22;7445;50.774;4.944;2023-04-19T07:14:16;12.40;99.90
14709;DHT22;7445;50.774;4.944;2023-04-19T07:16:44;12.50;99.90
14709;DHT22;7445;50.774;4.944;2023-04-19T07:19:10;12.60;99.90
14709;DHT22;7445;50.774;4.944;2023-04-19T07:21:36;12.50;99.90
14709;DHT22;7445;50.774;4.944;2023-04-19T07:24:07;12.60;99.90
14709;DHT22;7445;50.774;4.944;2023-04-19T07:26:32;12.60;99.90
14709;DHT22;7445;50.774;4.944;2023-04-19T07:28:59;12.60;99.90
14709;DHT22;7445;50.774;4.944;2023-04-19T07:31:25;12.60;99.90
14709;DHT22;7445;50.774;4.944;2023-04-19T07:33:52;12.60;99.90
14709;DHT22;7445;50.774;4.944;2023-04-19T07:36:18;12.80;99.90
14709;DHT22;7445;50.774;4.944;2023-04-19T07:38:44;12.90;99.90
14709;DHT22;7445;50.774;4.944;2023-04-19T07:41:09;13.10;99.90
14709;DHT22;7445;50.774;4.944;2023-04-19T07:43:35;13.10;99.90
14709;DHT22;7445;50.774;4.944;2023-04-19T07:46:08;13.20;99.90
14709;DHT22;7445;50.774;4.944;2023-04-19T07:48:36;13.20;99.90
14709;DHT22;7445;50.774;4.944;2023-04-19T07:51:13;13.20;99.90
14709;DHT22;7445;50.774;4.944;2023-04-19T07:53:40;13.10;99.90
14709;DHT22;7445;50.774;4.944;2023-04-19T07:56:09;13.40;99.90
14709;DHT22;7445;50.774;4.944;2023-04-19T07:58:36;13.40;99.90
14709;DHT22;7445;50.774;4.944;2023-04-19T08:01:02;13.50;99.90
14709;DHT22;7445;50.774;4.944;2023-04-19T08:03:34;13.50;99.90
14709;DHT22;7445;50.774;4.944;2023-04-19T08:06:04;13.60;99.90
14709;DHT22;7445;50.774;4.944;2023-04-19T08:08:32;13.70;99.90
14709;DHT22;7445;50.774;4.944;2023-04-19T08:10:57;13.80;99.90
14709;DHT22;7445;50.774;4.944;2023-04-19T08:13:23;13.90;99.90
14709;DHT22;7445;50.774;4.944;2023-04-19T08:15:49;13.90;99.90
14709;DHT22;7445;50.774;4.944;2023-04-19T08:18:14;13.90;99.90
14709;DHT22;7445;50.774;4.944;2023-04-19T08:20:40;13.90;99.90
14709;DHT22;7445;50.774;4.944;2023-04-19T08:23:09;14.00;99.90
14709;DHT22;7445;50.774;4.944;2023-04-19T08:25:35;14.00;99.90
14709;DHT22;7445;50.774;4.944;2023-04-19T08:28:01;14.10;99.90
14709;DHT22;7445;50.774;4.944;2023-04-19T08:30:27;14.10;99.90
14709;DHT22;7445;50.774;4.944;2023-04-19T08:32:52;14.40;99.90
14709;DHT22;7445;50.774;4.944;2023-04-19T08:35:19;14.50;99.90
14709;DHT22;7445;50.774;4.944;2023-04-19T08:37:44;14.60;99.90
14709;DHT22;7445;50.774;4.944;2023-04-19T08:40:10;14.60;99.90
14709;DHT22;7445;50.774;4.944;2023-04-19T08:42:36;14.70;99.90
14709;DHT22;7445;50.774;4.944;2023-04-19T08:45:02;14.80;99.90
14709;DHT22;7445;50.774;4.944;2023-04-19T08:47:34;14.80;99.90
14709;DHT22;7445;50.774;4.944;2023-04-19T08:50:03;15.00;99.90
14709;DHT22;7445;50.774;4.944;2023-04-19T08:52:29;15.10;99.90
14709;DHT22;7445;50.774;4.944;2023-04-19T08:54:56;15.10;99.90
14709;DHT22;7445;50.774;4.944;2023-04-19T08:57:22;15.00;99.90
14709;DHT22;7445;50.774;4.944;2023-04-19T08:59:48;14.90;99.90
14709;DHT22;7445;50.774;4.944;2023-04-19T09:02:20;15.00;99.90
14709;DHT22;7445;50.774;4.944;2023-04-19T09:04:45;15.00;1.00
14709;DHT22;7445;50.774;4.944;2023-04-19T09:07:33;15.10;1.00
14709;DHT22;7445;50.774;4.944;2023-04-19T09:12:32;15.50;1.00
14709;DHT22;7445;50.774;4.944;2023-04-19T09:14:59;15.60;1.00
14709;DHT22;7445;50.774;4.944;2023-04-19T09:17:25;15.60;1.00
14709;DHT22;7445;50.774;4.944;2023-04-19T09:19:51;15.70;1.00
14709;DHT22;7445;50.774;4.944;2023-04-19T09:22:17;15.60;1.00
14709;DHT22;7445;50.774;4.944;2023-04-19T09:24:43;15.70;1.00
14709;DHT22;7445;50.774;4.944;2023-04-19T09:27:08;16.10;1.00
14709;DHT22;7445;50.774;4.944;2023-04-19T09:29:36;16.30;1.00
14709;DHT22;7445;50.774;4.944;2023-04-19T09:32:02;16.20;1.00
14709;DHT22;7445;50.774;4.944;2023-04-19T09:34:28;15.90;1.00
14709;DHT22;7445;50.774;4.944;2023-04-19T09:36:55;15.60;1.00
14709;DHT22;7445;50.774;4.944;2023-04-19T09:39:47;15.40;1.00
14709;DHT22;7445;50.774;4.944;2023-04-19T09:42:13;15.70;1.00
14709;DHT22;7445;50.774;4.944;2023-04-19T09:44:38;15.90;1.00
14709;DHT22;7445;50.774;4.944;2023-04-19T09:47:27;15.60;1.00
14709;DHT22;7445;50.774;4.944;2023-04-19T09:50:23;15.40;1.00
14709;DHT22;7445;50.774;4.944;2023-04-19T09:52:50;15.40;1.00
14709;DHT22;7445;50.774;4.944;2023-04-19T09:55:17;15.40;1.00
14709;DHT22;7445;50.774;4.944;2023-04-19T09:57:43;15.30;1.00
14709;DHT22;7445;50.774;4.944;2023-04-19T10:00:09;15.50;1.00
14709;DHT22;7445;50.774;4.944;2023-04-19T10:02:39;16.00;1.00
14709;DHT22;7445;50.774;4.944;2023-04-19T10:05:07;16.30;1.00
14709;DHT22;7445;50.774;4.944;2023-04-19T10:07:33;16.40;99.90
14709;DHT22;7445;50.774;4.944;2023-04-19T10:10:01;16.30;99.90
14709;DHT22;7445;50.774;4.944;2023-04-19T10:12:28;16.60;1.00
14709;DHT22;7445;50.774;4.944;2023-04-19T10:14:55;16.70;1.00
14709;DHT22;7445;50.774;4.944;2023-04-19T10:17:24;16.20;99.90
14709;DHT22;7445;50.774;4.944;2023-04-19T10:19:56;16.20;1.00
14709;DHT22;7445;50.774;4.944;2023-04-19T10:22:23;16.70;99.90
14709;DHT22;7445;50.774;4.944;2023-04-19T10:25:13;17.10;1.00
14709;DHT22;7445;50.774;4.944;2023-04-19T10:27:43;17.00;99.90
14709;DHT22;7445;50.774;4.944;2023-04-19T10:30:20;17.10;1.00
14709;DHT22;7445;50.774;4.944;2023-04-19T10:32:52;17.10;99.90
14709;DHT22;7445;50.774;4.944;2023-04-19T10:35:40;16.90;49.20
14709;DHT22;7445;50.774;4.944;2023-04-19T10:38:10;16.70;1.00
14709;DHT22;7445;50.774;4.944;2023-04-19T10:40:58;16.80;99.90
14709;DHT22;7445;50.774;4.944;2023-04-19T10:43:29;17.20;99.90
14709;DHT22;7445;50.774;4.944;2023-04-19T10:46:01;17.20;99.90
14709;DHT22;7445;50.774;4.944;2023-04-19T10:48:31;17.10;1.00
14709;DHT22;7445;50.774;4.944;2023-04-19T10:56:20;17.10;1.00
14709;DHT22;7445;50.774;4.944;2023-04-19T11:01:44;17.00;1.00
14709;DHT22;7445;50.774;4.944;2023-04-19T11:09:25;17.30;99.90
14709;DHT22;7445;50.774;4.944;2023-04-19T11:11:51;17.20;99.90
14709;DHT22;7445;50.774;4.944;2023-04-19T11:14:19;16.90;1.00
14709;DHT22;7445;50.774;4.944;2023-04-19T11:16:45;16.90;1.00
14709;DHT22;7445;50.774;4.944;2023-04-19T11:19:18;17.40;1.30
14709;DHT22;7445;50.774;4.944;2023-04-19T11:21:48;18.10;99.90
14709;DHT22;7445;50.774;4.944;2023-04-19T11:24:14;18.20;1.00
14709;DHT22;7445;50.774;4.944;2023-04-19T11:26:47;18.00;99.90
14709;DHT22;7445;50.774;4.944;2023-04-19T11:29:13;17.90;1.00
14709;DHT22;7445;50.774;4.944;2023-04-19T11:31:39;18.10;1.00
14709;DHT22;7445;50.774;4.944;2023-04-19T11:34:07;17.90;99.90
14709;DHT22;7445;50.774;4.944;2023-04-19T11:36:33;18.10;99.90
14709;DHT22;7445;50.774;4.944;2023-04-19T11:39:03;18.40;99.90
14709;DHT22;7445;50.774;4.944;2023-04-19T11:41:29;19.00;99.90
14709;DHT22;7445;50.774;4.944;2023-04-19T11:44:01;18.90;99.90
14709;DHT22;7445;50.774;4.944;2023-04-19T11:46:26;18.80;1.00
14709;DHT22;7445;50.774;4.944;2023-04-19T11:48:52;18.50;1.00
14709;DHT22;7445;50.774;4.944;2023-04-19T11:51:19;18.10;99.90
14709;DHT22;7445;50.774;4.944;2023-04-19T11:53:45;18.20;1.00
14709;DHT22;7445;50.774;4.944;2023-04-19T11:56:11;17.70;1.00
14709;DHT22;7445;50.774;4.944;2023-04-19T11:58:44;17.80;99.90
14709;DHT22;7445;50.774;4.944;2023-04-19T12:01:19;18.10;1.00
14709;DHT22;7445;50.774;4.944;2023-04-19T12:03:52;18.30;1.00
14709;DHT22;7445;50.774;4.944;2023-04-19T12:06:25;18.60;99.90
14709;DHT22;7445;50.774;4.944;2023-04-19T12:08:53;18.50;1.00
14709;DHT22;7445;50.774;4.944;2023-04-19T12:11:22;18.60;1.00
14709;DHT22;7445;50.774;4.944;2023-04-19T12:14:07;19.00;1.00
14709;DHT22;7445;50.774;4.944;2023-04-19T12:16:33;19.00;99.90
14709;DHT22;7445;50.774;4.944;2023-04-19T12:19:13;19.00;99.90
14709;DHT22;7445;50.774;4.944;2023-04-19T12:21:39;19.10;1.00
14709;DHT22;7445;50.774;4.944;2023-04-19T12:24:04;19.00;99.90
14709;DHT22;7445;50.774;4.944;2023-04-19T12:26:30;19.20;99.90
14709;DHT22;7445;50.774;4.944;2023-04-19T12:28:57;19.00;99.90
14709;DHT22;7445;50.774;4.944;2023-04-19T12:31:23;19.00;99.90
14709;DHT22;7445;50.774;4.944;2023-04-19T12:33:49;18.60;99.90
14709;DHT22;7445;50.774;4.944;2023-04-19T12:36:14;18.40;99.90
14709;DHT22;7445;50.774;4.944;2023-04-19T12:38:40;18.40;99.90
14709;DHT22;7445;50.774;4.944;2023-04-19T12:41:07;18.40;99.90
14709;DHT22;7445;50.774;4.944;2023-04-19T12:43:32;18.70;99.90
14709;DHT22;7445;50.774;4.944;2023-04-19T12:45:58;18.60;99.90
14709;DHT22;7445;50.774;4.944;2023-04-19T12:48:25;18.80;99.90
14709;DHT22;7445;50.774;4.944;2023-04-19T12:50:51;18.90;99.90
14709;DHT22;7445;50.774;4.944;2023-04-19T12:53:17;18.90;99.90
14709;DHT22;7445;50.774;4.944;2023-04-19T12:55:42;19.10;99.90
14709;DHT22;7445;50.774;4.944;2023-04-19T12:58:16;18.90;99.90
14709;DHT22;7445;50.774;4.944;2023-04-19T13:00:42;19.20;99.90
14709;DHT22;7445;50.774;4.944;2023-04-19T13:03:08;19.00;99.90
14709;DHT22;7445;50.774;4.944;2023-04-19T13:05:35;18.80;99.90
14709;DHT22;7445;50.774;4.944;2023-04-19T13:08:00;19.00;99.90
14709;DHT22;7445;50.774;4.944;2023-04-19T13:10:26;19.00;99.90
14709;DHT22;7445;50.774;4.944;2023-04-19T13:12:51;19.60;99.90
14709;DHT22;7445;50.774;4.944;2023-04-19T13:15:17;19.50;99.90
14709;DHT22;7445;50.774;4.944;2023-04-19T13:17:43;19.50;99.90
14709;DHT22;7445;50.774;4.944;2023-04-19T13:20:09;19.70;99.90
14709;DHT22;7445;50.774;4.944;2023-04-19T13:22:35;19.80;99.90
14709;DHT22;7445;50.774;4.944;2023-04-19T13:25:00;19.20;99.90
14709;DHT22;7445;50.774;4.944;2023-04-19T13:27:26;19.00;99.90
14709;DHT22;7445;50.774;4.944;2023-04-19T13:29:54;19.00;99.90
14709;DHT22;7445;50.774;4.944;2023-04-19T13:32:20;18.90;1.00
14709;DHT22;7445;50.774;4.944;2023-04-19T13:34:46;19.10;99.90
14709;DHT22;7445;50.774;4.944;2023-04-19T13:37:11;19.20;99.90
14709;DHT22;7445;50.774;4.944;2023-04-19T13:39:37;19.10;1.00
14709;DHT22;7445;50.774;4.944;2023-04-19T13:42:03;18.80;99.90
14709;DHT22;7445;50.774;4.944;2023-04-19T13:44:29;18.80;99.90
14709;DHT22;7445;50.774;4.944;2023-04-19T13:46:55;18.80;99.90
14709;DHT22;7445;50.774;4.944;2023-04-19T13:49:21;19.00;1.00
14709;DHT22;7445;50.774;4.944;2023-04-19T13:51:46;18.70;99.90
14709;DHT22;7445;50.774;4.944;2023-04-19T13:54:12;18.40;99.90
14709;DHT22;7445;50.774;4.944;2023-04-19T13:56:38;18.40;99.90
14709;DHT22;7445;50.774;4.944;2023-04-19T13:59:03;18.70;99.90
14709;DHT22;7445;50.774;4.944;2023-04-19T14:01:29;18.60;99.90
14709;DHT22;7445;50.774;4.944;2023-04-19T14:03:54;18.50;99.90
14709;DHT22;7445;50.774;4.944;2023-04-19T14:06:20;18.40;1.00
14709;DHT22;7445;50.774;4.944;2023-04-19T14:08:45;18.20;99.90
14709;DHT22;7445;50.774;4.944;2023-04-19T14:11:11;18.30;99.90
14709;DHT22;7445;50.774;4.944;2023-04-19T14:13:37;18.40;99.90
14709;DHT22;7445;50.774;4.944;2023-04-19T14:16:03;18.50;99.90
14709;DHT22;7445;50.774;4.944;2023-04-19T14:18:29;18.60;99.90
14709;DHT22;7445;50.774;4.944;2023-04-19T14:20:54;18.60;99.90
14709;DHT22;7445;50.774;4.944;2023-04-19T14:23:20;18.80;99.90
14709;DHT22;7445;50.774;4.944;2023-04-19T14:25:46;18.40;99.90
14709;DHT22;7445;50.774;4.944;2023-04-19T14:28:12;18.20;99.90
14709;DHT22;7445;50.774;4.944;2023-04-19T14:30:38;18.70;1.00
14709;DHT22;7445;50.774;4.944;2023-04-19T14:33:04;19.00;1.00
14709;DHT22;7445;50.774;4.944;2023-04-19T14:35:30;19.10;99.90
14709;DHT22;7445;50.774;4.944;2023-04-19T14:37:55;19.20;99.90
14709;DHT22;7445;50.774;4.944;2023-04-19T14:40:21;19.20;1.00
14709;DHT22;7445;50.774;4.944;2023-04-19T14:42:47;19.00;99.90
14709;DHT22;7445;50.774;4.944;2023-04-19T14:45:13;19.20;99.90
14709;DHT22;7445;50.774;4.944;2023-04-19T14:47:38;19.50;1.00
14709;DHT22;7445;50.774;4.944;2023-04-19T14:50:05;19.20;99.90
14709;DHT22;7445;50.774;4.944;2023-04-19T14:52:31;19.60;99.90
14709;DHT22;7445;50.774;4.944;2023-04-19T14:54:56;19.40;1.00
14709;DHT22;7445;50.774;4.944;2023-04-19T14:57:22;19.50;99.90
14709;DHT22;7445;50.774;4.944;2023-04-19T14:59:48;19.70;99.90
14709;DHT22;7445;50.774;4.944;2023-04-19T15:02:14;20.10;1.00
14709;DHT22;7445;50.774;4.944;2023-04-19T15:04:39;20.00;99.90
14709;DHT22;7445;50.774;4.944;2023-04-19T15:07:05;20.10;99.90
14709;DHT22;7445;50.774;4.944;2023-04-19T15:09:31;19.80;99.90
14709;DHT22;7445;50.774;4.944;2023-04-19T15:11:56;19.80;46.40
14709;DHT22;7445;50.774;4.944;2023-04-19T15:14:22;19.70;99.90
14709;DHT22;7445;50.774;4.944;2023-04-19T15:16:48;19.90;99.90
14709;DHT22;7445;50.774;4.944;2023-04-19T15:19:14;20.10;99.90
14709;DHT22;7445;50.774;4.944;2023-04-19T15:21:39;19.90;1.00
14709;DHT22;7445;50.774;4.944;2023-04-19T15:24:05;19.90;99.90
14709;DHT22;7445;50.774;4.944;2023-04-19T15:26:33;20.10;99.90
14709;DHT22;7445;50.774;4.944;2023-04-19T15:28:59;19.70;99.90
14709;DHT22;7445;50.774;4.944;2023-04-19T15:31:25;19.60;99.90
14709;DHT22;7445;50.774;4.944;2023-04-19T15:33:51;19.90;1.00
14709;DHT22;7445;50.774;4.944;2023-04-19T15:36:16;20.00;99.90
14709;DHT22;7445;50.774;4.944;2023-04-19T15:38:43;20.20;99.90
14709;DHT22;7445;50.774;4.944;2023-04-19T15:41:09;20.20;99.90
14709;DHT22;7445;50.774;4.944;2023-04-19T15:43:35;20.30;1.00
14709;DHT22;7445;50.774;4.944;2023-04-19T15:46:00;20.60;99.90
14709;DHT22;7445;50.774;4.944;2023-04-19T15:48:27;20.60;1.00
14709;DHT22;7445;50.774;4.944;2023-04-19T15:50:52;20.60;99.90
14709;DHT22;7445;50.774;4.944;2023-04-19T15:53:18;20.40;99.90
14709;DHT22;7445;50.774;4.944;2023-04-19T15:55:44;20.20;99.90
14709;DHT22;7445;50.774;4.944;2023-04-19T15:58:12;20.60;99.90
14709;DHT22;7445;50.774;4.944;2023-04-19T16:00:37;20.00;99.90
14709;DHT22;7445;50.774;4.944;2023-04-19T16:03:03;19.70;99.90
14709;DHT22;7445;50.774;4.944;2023-04-19T16:05:29;19.50;99.90
14709;DHT22;7445;50.774;4.944;2023-04-19T16:08:06;19.20;99.90
14709;DHT22;7445;50.774;4.944;2023-04-19T16:10:32;18.80;99.90
14709;DHT22;7445;50.774;4.944;2023-04-19T16:12:59;18.70;18.80
14709;DHT22;7445;50.774;4.944;2023-04-19T16:15:25;18.40;99.90
14709;DHT22;7445;50.774;4.944;2023-04-19T16:17:51;17.80;99.90
14709;DHT22;7445;50.774;4.944;2023-04-19T16:20:17;17.50;99.90
14709;DHT22;7445;50.774;4.944;2023-04-19T16:22:42;17.30;99.90
14709;DHT22;7445;50.774;4.944;2023-04-19T16:25:08;17.40;1.00
14709;DHT22;7445;50.774;4.944;2023-04-19T16:27:40;17.50;99.90
14709;DHT22;7445;50.774;4.944;2023-04-19T16:30:07;17.10;99.90
14709;DHT22;7445;50.774;4.944;2023-04-19T16:32:32;16.90;99.90
14709;DHT22;7445;50.774;4.944;2023-04-19T16:34:58;16.90;99.90
14709;DHT22;7445;50.774;4.944;2023-04-19T16:37:24;16.90;99.90
14709;DHT22;7445;50.774;4.944;2023-04-19T16:39:49;17.00;99.90
14709;DHT22;7445;50.774;4.944;2023-04-19T16:42:15;17.00;99.90
14709;DHT22;7445;50.774;4.944;2023-04-19T16:44:41;16.90;99.90
14709;DHT22;7445;50.774;4.944;2023-04-19T16:47:06;16.70;99.90
14709;DHT22;7445;50.774;4.944;2023-04-19T16:49:32;16.70;99.90
14709;DHT22;7445;50.774;4.944;2023-04-19T16:51:57;16.70;99.90
14709;DHT22;7445;50.774;4.944;2023-04-19T16:54:23;16.60;99.90
14709;DHT22;7445;50.774;4.944;2023-04-19T16:56:49;16.40;99.90
14709;DHT22;7445;50.774;4.944;2023-04-19T16:59:14;16.50;99.90
14709;DHT22;7445;50.774;4.944;2023-04-19T17:01:40;16.60;99.90
14709;DHT22;7445;50.774;4.944;2023-04-19T17:04:05;16.70;99.90
14709;DHT22;7445;50.774;4.944;2023-04-19T17:06:31;16.40;99.90
14709;DHT22;7445;50.774;4.944;2023-04-19T17:09:00;16.30;99.90
14709;DHT22;7445;50.774;4.944;2023-04-19T17:11:26;16.30;99.90
14709;DHT22;7445;50.774;4.944;2023-04-19T17:13:55;16.60;99.90
14709;DHT22;7445;50.774;4.944;2023-04-19T17:16:20;17.00;99.90
14709;DHT22;7445;50.774;4.944;2023-04-19T17:18:46;17.00;99.90
14709;DHT22;7445;50.774;4.944;2023-04-19T17:21:12;16.80;99.90
14709;DHT22;7445;50.774;4.944;2023-04-19T17:23:40;16.10;99.90
14709;DHT22;7445;50.774;4.944;2023-04-19T17:26:06;15.90;35.40
14709;DHT22;7445;50.774;4.944;2023-04-19T17:28:31;15.50;99.90
14709;DHT22;7445;50.774;4.944;2023-04-19T17:30:57;15.40;99.90
14709;DHT22;7445;50.774;4.944;2023-04-19T17:33:23;15.40;99.90
14709;DHT22;7445;50.774;4.944;2023-04-19T17:35:48;15.30;99.90
14709;DHT22;7445;50.774;4.944;2023-04-19T17:38:15;15.20;99.90
14709;DHT22;7445;50.774;4.944;2023-04-19T17:40:41;15.20;99.90
14709;DHT22;7445;50.774;4.944;2023-04-19T17:43:06;15.20;99.90
14709;DHT22;7445;50.774;4.944;2023-04-19T17:45:33;14.90;99.90
14709;DHT22;7445;50.774;4.944;2023-04-19T17:47:58;14.80;8.30
14709;DHT22;7445;50.774;4.944;2023-04-19T17:50:26;14.60;99.90
14709;DHT22;7445;50.774;4.944;2023-04-19T17:52:53;14.50;99.90
14709;DHT22;7445;50.774;4.944;2023-04-19T17:55:19;14.40;99.90
14709;DHT22;7445;50.774;4.944;2023-04-19T17:57:45;14.30;99.90
14709;DHT22;7445;50.774;4.944;2023-04-19T18:00:11;14.30;99.90
14709;DHT22;7445;50.774;4.944;2023-04-19T18:02:37;14.30;99.90
14709;DHT22;7445;50.774;4.944;2023-04-19T18:05:04;14.30;99.90
14709;DHT22;7445;50.774;4.944;2023-04-19T18:07:30;14.20;99.90
14709;DHT22;7445;50.774;4.944;2023-04-19T18:09:55;14.10;99.90
14709;DHT22;7445;50.774;4.944;2023-04-19T18:12:22;14.00;99.90
14709;DHT22;7445;50.774;4.944;2023-04-19T18:14:47;14.10;99.90
14709;DHT22;7445;50.774;4.944;2023-04-19T18:17:13;13.90;99.90
14709;DHT22;7445;50.774;4.944;2023-04-19T18:19:38;13.80;99.90
14709;DHT22;7445;50.774;4.944;2023-04-19T18:22:04;13.80;99.90
14709;DHT22;7445;50.774;4.944;2023-04-19T18:24:31;13.70;99.90
14709;DHT22;7445;50.774;4.944;2023-04-19T18:26:56;13.60;99.90
14709;DHT22;7445;50.774;4.944;2023-04-19T18:29:24;13.50;1.00
14709;DHT22;7445;50.774;4.944;2023-04-19T18:31:49;13.50;99.90
14709;DHT22;7445;50.774;4.944;2023-04-19T18:34:17;13.40;99.90
14709;DHT22;7445;50.774;4.944;2023-04-19T18:36:43;13.40;99.90
14709;DHT22;7445;50.774;4.944;2023-04-19T18:39:09;13.30;99.90
14709;DHT22;7445;50.774;4.944;2023-04-19T18:41:34;13.20;99.90
14709;DHT22;7445;50.774;4.944;2023-04-19T18:44:00;13.20;1.00
14709;DHT22;7445;50.774;4.944;2023-04-19T18:46:26;13.10;99.90
14709;DHT22;7445;50.774;4.944;2023-04-19T18:48:51;13.00;99.90
14709;DHT22;7445;50.774;4.944;2023-04-19T18:51:17;12.90;99.90
14709;DHT22;7445;50.774;4.944;2023-04-19T18:53:43;12.80;99.90
14709;DHT22;7445;50.774;4.944;2023-04-19T18:56:08;12.60;1.00
14709;DHT22;7445;50.774;4.944;2023-04-19T18:58:34;12.50;99.90
14709;DHT22;7445;50.774;4.944;2023-04-19T19:01:00;12.30;99.90
14709;DHT22;7445;50.774;4.944;2023-04-19T19:03:26;12.20;99.90
14709;DHT22;7445;50.774;4.944;2023-04-19T19:05:52;12.20;1.00
14709;DHT22;7445;50.774;4.944;2023-04-19T19:08:18;12.30;99.90
14709;DHT22;7445;50.774;4.944;2023-04-19T19:10:44;12.30;99.90
14709;DHT22;7445;50.774;4.944;2023-04-19T19:13:09;12.30;99.90
14709;DHT22;7445;50.774;4.944;2023-04-19T19:15:40;12.30;99.90
14709;DHT22;7445;50.774;4.944;2023-04-19T19:18:06;12.30;99.90
14709;DHT22;7445;50.774;4.944;2023-04-19T19:20:32;12.30;99.90
14709;DHT22;7445;50.774;4.944;2023-04-19T19:22:58;12.20;99.90
14709;DHT22;7445;50.774;4.944;2023-04-19T19:25:24;12.10;99.90
14709;DHT22;7445;50.774;4.944;2023-04-19T19:27:50;12.10;99.90
14709;DHT22;7445;50.774;4.944;2023-04-19T19:30:22;12.10;99.90
14709;DHT22;7445;50.774;4.944;2023-04-19T19:32:50;12.00;99.90
14709;DHT22;7445;50.774;4.944;2023-04-19T19:35:16;11.90;99.90
14709;DHT22;7445;50.774;4.944;2023-04-19T19:37:41;11.90;99.90
14709;DHT22;7445;50.774;4.944;2023-04-19T19:40:07;11.80;99.90
14709;DHT22;7445;50.774;4.944;2023-04-19T19:42:33;11.80;99.90
14709;DHT22;7445;50.774;4.944;2023-04-19T19:45:00;11.70;99.90
14709;DHT22;7445;50.774;4.944;2023-04-19T19:47:26;11.60;1.00
14709;DHT22;7445;50.774;4.944;2023-04-19T19:49:55;11.40;1.00
14709;DHT22;7445;50.774;4.944;2023-04-19T19:52:20;11.20;99.90
14709;DHT22;7445;50.774;4.944;2023-04-19T19:54:47;11.10;99.90
14709;DHT22;7445;50.774;4.944;2023-04-19T19:57:12;11.20;99.90
14709;DHT22;7445;50.774;4.944;2023-04-19T19:59:38;11.20;99.90
14709;DHT22;7445;50.774;4.944;2023-04-19T20:02:04;11.20;99.90
14709;DHT22;7445;50.774;4.944;2023-04-19T20:04:31;11.20;99.90
14709;DHT22;7445;50.774;4.944;2023-04-19T20:07:11;11.30;99.90
14709;DHT22;7445;50.774;4.944;2023-04-19T20:09:38;11.30;99.90
14709;DHT22;7445;50.774;4.944;2023-04-19T20:12:04;11.30;99.90
14709;DHT22;7445;50.774;4.944;2023-04-19T20:14:30;11.20;99.90
14709;DHT22;7445;50.774;4.944;2023-04-19T20:16:55;11.20;99.90
14709;DHT22;7445;50.774;4.944;2023-04-19T20:19:21;11.10;99.90
14709;DHT22;7445;50.774;4.944;2023-04-19T20:21:47;11.00;99.90
14709;DHT22;7445;50.774;4.944;2023-04-19T20:24:12;11.00;99.90
14709;DHT22;7445;50.774;4.944;2023-04-19T20:26:39;11.00;99.90
14709;DHT22;7445;50.774;4.944;2023-04-19T20:29:05;11.00;99.90
14709;DHT22;7445;50.774;4.944;2023-04-19T20:31:30;11.00;99.90
14709;DHT22;7445;50.774;4.944;2023-04-19T20:33:56;10.80;99.90
14709;DHT22;7445;50.774;4.944;2023-04-19T20:36:22;10.80;99.90
14709;DHT22;7445;50.774;4.944;2023-04-19T20:38:49;10.80;99.90
14709;DHT22;7445;50.774;4.944;2023-04-19T20:41:15;10.80;1.00
14709;DHT22;7445;50.774;4.944;2023-04-19T20:43:41;10.70;99.90
14709;DHT22;7445;50.774;4.944;2023-04-19T20:46:07;10.70;99.90
14709;DHT22;7445;50.774;4.944;2023-04-19T20:48:33;10.70;99.90
14709;DHT22;7445;50.774;4.944;2023-04-19T20:50:58;10.70;99.90
14709;DHT22;7445;50.774;4.944;2023-04-19T20:53:24;10.70;99.90
14709;DHT22;7445;50.774;4.944;2023-04-19T20:55:50;10.60;99.90
14709;DHT22;7445;50.774;4.944;2023-04-19T20:58:15;10.60;99.90
14709;DHT22;7445;50.774;4.944;2023-04-19T21:00:41;10.50;99.90
14709;DHT22;7445;50.774;4.944;2023-04-19T21:03:07;10.50;99.90
14709;DHT22;7445;50.774;4.944;2023-04-19T21:05:34;10.50;99.90
14709;DHT22;7445;50.774;4.944;2023-04-19T21:08:00;10.50;99.90
14709;DHT22;7445;50.774;4.944;2023-04-19T21:10:26;10.40;99.90
14709;DHT22;7445;50.774;4.944;2023-04-19T21:12:52;10.40;99.90
14709;DHT22;7445;50.774;4.944;2023-04-19T21:15:18;10.30;99.90
14709;DHT22;7445;50.774;4.944;2023-04-19T21:17:44;10.30;99.90
14709;DHT22;7445;50.774;4.944;2023-04-19T21:20:10;10.20;99.90
